Weather History for Cut Bank, MT

Change the Weather History Date:

Monday, December 2, 2013

  Actual Average Record
Temperature  
Mean Temperature 21 °F 24 °F  
Max Temperature 36 °F 34 °F 60 °F (1963)
Min Temperature 5 °F 15 °F -28 °F (1985)
Degree Days  
Heating Degree Days 44 41  
Month to date heating degree days 71 81  
Since 1 July heating degree days 2160 2344  
Cooling Degree Days 0 0  
Month to date cooling degree days 0 0  
Year to date cooling degree days 226 162  
Moisture  
Dew Point 10 °F    
Average Humidity 88    
Maximum Humidity 100    
Minimum Humidity 76    
Precipitation  
Precipitation 0.02 in 0.01 in 0.30 in (1942)
Month to date precipitation 0.02 0.02  
Year to date precipitation 14.43 10.70  
Snow  
Snow 0.00 in - - ()
Snow Depth 0.00 in    
Sea Level Pressure  
Sea Level Pressure 29.76 in    
Wind  
Wind Speed 24 mph (NNW)    
Max Wind Speed 39 mph    
Max Gust Speed 47 mph    
Visibility 4 miles    
Events Fog , Snow    
T = Trace of Precipitation, MM = Missing Value Source: NWS Daily Summary

Daily Weather History Graph

Daily Weather History Graph

Search for Another Location

Airport:

Trip Planner

Search our weather history database for the weather conditions in past years. The results will help you decide how hot, cold, wet, or windy it might be!

Date:

Astronomy

Dec. 02, 2013 Rise Set
Actual Time 8:02 AM MST 4:35 PM MST
Civil Twilight 7:26 AM MST 5:11 PM MST
Nautical Twilight 6:46 AM MST 5:51 PM MST
Astronomical Twilight 6:08 AM MST 6:29 PM MST
Moon 7:28 AM MST (12/2) 4:44 PM MST (12/2)
Length of Visible Light 9h 45m
Length of Day
8h 33m
Waning Crescent, 0% of the Moon is Illuminated
Dec 2
Waning Crescent
Dec 2
New
Dec 9
First Quarter
Dec 17
Full
Dec 25
Last Quarter

Hourly Weather History & Observations

Time (MST) Temp. Windchill Dew Point Humidity Pressure Visibility Wind Dir Wind Speed Gust Speed Precip Events Conditions
12:56 AM 33.1 °F 26.1 °F 28.0 °F 82% 29.57 in 10.0 mi West 8.1 mph - N/A   Clear
1:56 AM 33.1 °F 27.7 °F 28.0 °F 82% 29.54 in 10.0 mi WNW 5.8 mph - N/A   Clear
2:56 AM 34.0 °F 28.0 °F 28.9 °F 82% 29.55 in 10.0 mi West 6.9 mph - N/A   Overcast
3:56 AM 32.0 °F 22.1 °F 28.0 °F 85% 29.56 in 10.0 mi North 13.8 mph 21.9 mph N/A   Overcast
4:56 AM 28.0 °F 20.0 °F 27.0 °F 96% 29.55 in 10.0 mi North 8.1 mph - 0.00 in   Partly Cloudy
5:05 AM 28.0 °F 19.3 °F 27.0 °F 96% 29.48 in 10.0 mi North 9.2 mph - N/A   Scattered Clouds
5:20 AM 30.0 °F 23.2 °F 28.9 °F 96% 29.49 in 10.0 mi North 6.9 mph - N/A   Mostly Cloudy
5:42 AM 30.9 °F 25.2 °F 30.0 °F 96% 29.48 in 10.0 mi NNE 5.8 mph - N/A   Overcast
5:56 AM 30.9 °F 26.2 °F 30.0 °F 96% 29.55 in 10.0 mi NNW 4.6 mph - N/A   Overcast
6:15 AM 26.1 °F 12.3 °F 24.1 °F 92% 29.49 in 6.0 mi North 19.6 mph - N/A   Overcast
6:23 AM 26.1 °F 12.3 °F 23.0 °F 88% 29.50 in 5.0 mi North 19.6 mph - 0.00 in Snow Light Snow
6:56 AM 24.1 °F 9.4 °F 21.9 °F 91% 29.60 in 3.0 mi North 20.7 mph - 0.00 in Snow Light Snow
7:02 AM 24.1 °F 9.4 °F 21.0 °F 88% 29.53 in 1.8 mi NNW 20.7 mph - 0.00 in Snow Light Snow
7:10 AM 24.1 °F 9.0 °F 21.0 °F 88% 29.53 in 3.0 mi NNW 21.9 mph - 0.00 in Snow Light Snow
7:20 AM 24.1 °F 9.4 °F 21.0 °F 88% 29.54 in 4.0 mi NNW 20.7 mph 27.6 mph 0.00 in   Overcast
7:32 AM 24.1 °F 9.4 °F 21.0 °F 88% 29.54 in 2.0 mi NNW 20.7 mph - 0.00 in Snow Light Snow
7:51 AM 24.8 °F 8.7 °F 19.4 °F 80% 29.55 in 1.8 mi NNW 26.5 mph 34.5 mph 0.00 in Snow Light Snow
7:56 AM 23.0 °F 6.3 °F 19.9 °F 88% 29.64 in 2.0 mi NNW 26.5 mph 34.5 mph 0.00 in Snow Light Snow
8:06 AM 23.0 °F 5.7 °F 19.0 °F 85% 29.55 in 7.0 mi North 28.8 mph 36.8 mph 0.00 in Snow Light Snow
8:21 AM 21.9 °F 4.8 °F 18.0 °F 85% 29.57 in 4.0 mi NNW 26.5 mph - 0.00 in Snow Light Snow
8:26 AM 21.9 °F 4.5 °F 18.0 °F 85% 29.57 in 1.8 mi NNW 27.6 mph 33.4 mph 0.00 in Snow Light Snow
8:35 AM 21.9 °F 4.2 °F 18.0 °F 85% 29.58 in 0.8 mi NNW 28.8 mph - 0.00 in Snow Light Snow
8:56 AM 17.1 °F -2.0 °F 12.0 °F 81% 29.71 in 1.0 mi NNW 27.6 mph 36.8 mph 0.00 in Snow Light Snow
9:09 AM 16.0 °F -5.0 °F 12.0 °F 84% 29.60 in 0.2 mi NNW 33.4 mph 39.1 mph 0.00 in Fog , Snow Heavy Snow
9:22 AM 15.1 °F -5.0 °F 10.9 °F 84% 29.62 in 0.2 mi NNW 28.8 mph 38.0 mph 0.00 in Fog , Snow Heavy Snow
9:30 AM 15.1 °F -5.3 °F 10.9 °F 84% 29.62 in 0.5 mi NNW 29.9 mph 36.8 mph 0.01 in Fog , Snow Snow
9:42 AM 15.1 °F -5.9 °F 10.9 °F 84% 29.61 in 0.8 mi NNW 32.2 mph 39.1 mph 0.01 in Snow Light Snow
9:47 AM 14.0 °F -7.4 °F 10.0 °F 84% 29.62 in 1.0 mi NNW 32.2 mph 41.4 mph 0.01 in Snow Light Snow
9:56 AM 14.0 °F -6.2 °F 10.0 °F 84% 29.73 in 1.2 mi NNW 27.6 mph 39.1 mph 0.01 in Snow Light Snow
10:07 AM 14.0 °F -5.5 °F 9.0 °F 80% 29.65 in 3.0 mi NNW 25.3 mph 34.5 mph 0.00 in Snow Light Snow
10:21 AM 15.1 °F -5.0 °F 9.0 °F 77% 29.66 in 5.0 mi NW 28.8 mph 34.5 mph 0.00 in Snow Light Snow
10:29 AM 14.0 °F -5.5 °F 9.0 °F 80% 29.67 in 2.5 mi NNW 25.3 mph 36.8 mph 0.00 in Snow Light Snow
10:40 AM 12.9 °F -7.6 °F 8.1 °F 81% 29.66 in 1.8 mi NNW 27.6 mph 36.8 mph 0.00 in Snow Light Snow
10:49 AM 12.9 °F -6.9 °F 8.1 °F 81% 29.67 in 2.5 mi NNW 25.3 mph 34.5 mph 0.00 in Snow Light Snow
10:56 AM 12.9 °F -8.6 °F 7.0 °F 77% 29.79 in 1.5 mi NNW 31.1 mph 39.1 mph 0.00 in Snow Light Snow
11:06 AM 12.9 °F -8.9 °F 8.1 °F 81% 29.67 in 0.5 mi NNW 32.2 mph 40.3 mph 0.00 in Snow Snow
11:18 AM 12.9 °F -8.9 °F 8.1 °F 81% 29.66 in 1.2 mi NNW 32.2 mph 39.1 mph 0.00 in Snow Light Snow
11:31 AM 12.9 °F -9.5 °F 7.0 °F 77% 29.67 in 3.0 mi NNW 34.5 mph 42.6 mph 0.00 in Snow Light Snow
11:56 AM 10.9 °F -11.9 °F 5.0 °F 77% 29.79 in 10.0 mi NNW 33.4 mph 44.9 mph 0.00 in   Scattered Clouds
12:18 PM 10.9 °F -12.2 °F 3.9 °F 73% 29.70 in 10.0 mi NNW 34.5 mph 42.6 mph N/A   Mostly Cloudy
12:29 PM 12.0 °F -9.8 °F 5.0 °F 73% 29.70 in 10.0 mi NNW 31.1 mph 41.4 mph N/A   Overcast
12:56 PM 10.9 °F -11.6 °F 5.0 °F 77% 29.83 in 10.0 mi NNW 32.2 mph 41.4 mph N/A   Overcast
1:28 PM 10.0 °F -14.6 °F 3.9 °F 76% 29.71 in 1.8 mi NNW 39.1 mph 47.2 mph 0.00 in Snow Light Snow
1:51 PM 8.6 °F -15.4 °F 3.2 °F 79% 29.74 in 0.8 mi NNW 34.5 mph 43.7 mph 0.00 in Snow Light Snow
1:56 PM 10.0 °F -12.5 °F 3.9 °F 76% 29.88 in 0.8 mi NNW 31.1 mph 43.7 mph 0.00 in Snow Light Snow
2:31 PM 9.0 °F -14.6 °F 3.9 °F 80% 29.74 in 0.5 mi NNW 33.4 mph 44.9 mph 0.00 in Snow Snow
2:40 PM 8.1 °F -15.5 °F 3.9 °F 83% 29.75 in 0.5 mi NNW 32.2 mph 44.9 mph 0.00 in Fog , Snow Snow
2:56 PM 9.0 °F -13.0 °F 3.9 °F 80% 29.90 in 0.8 mi NNW 27.6 mph 42.6 mph 0.00 in Snow Light Snow
3:04 PM 9.0 °F -13.7 °F 3.9 °F 80% 29.77 in 1.0 mi NNW 29.9 mph 41.4 mph 0.00 in Snow Light Snow
3:15 PM 8.1 °F -16.5 °F 3.0 °F 80% 29.78 in 0.5 mi NNW 35.7 mph 43.7 mph 0.00 in Snow Snow
3:24 PM 8.1 °F -15.9 °F 3.9 °F 83% 29.79 in 0.2 mi NNW 33.4 mph 44.9 mph 0.00 in Fog , Snow Snow
3:52 PM 6.8 °F -18.2 °F 3.2 °F 85% 29.80 in 0.2 mi NNW 35.7 mph 46.0 mph 0.00 in Fog , Snow Snow
3:56 PM 7.0 °F -17.0 °F 3.0 °F 84% 29.95 in 0.2 mi NNW 32.2 mph 46.0 mph 0.00 in Fog , Snow Snow
4:13 PM 7.0 °F -17.7 °F 1.9 °F 80% 29.82 in 0.5 mi NNW 34.5 mph 44.9 mph 0.01 in Snow Snow
4:21 PM 7.0 °F -17.7 °F 3.0 °F 84% 29.82 in 0.2 mi NNW 34.5 mph 44.9 mph 0.01 in Fog , Snow Light Snow
4:28 PM 7.0 °F -18.3 °F 1.9 °F 80% 29.83 in 0.5 mi NNW 36.8 mph 44.9 mph 0.01 in Snow Snow
4:51 PM 6.8 °F -17.3 °F 1.4 °F 79% 29.84 in 1.0 mi NW 32.2 mph 39.1 mph 0.01 in Snow Light Snow
4:56 PM 6.1 °F -18.2 °F 1.9 °F 83% 30.01 in 1.2 mi NNW 32.2 mph 40.3 mph 0.01 in Snow Light Snow
5:44 PM 6.1 °F -19.2 °F 1.0 °F 80% 29.86 in 2.0 mi NNW 35.7 mph 42.6 mph 0.00 in Snow Light Snow
5:56 PM 6.1 °F -19.2 °F 1.0 °F 80% 30.02 in 2.0 mi NNW 35.7 mph 43.7 mph 0.00 in Snow Light Snow
6:06 PM 6.1 °F -17.9 °F 1.9 °F 83% 29.87 in 1.8 mi NW 31.1 mph 44.9 mph 0.00 in Snow Light Snow
6:45 PM 6.1 °F -16.1 °F 1.0 °F 80% 29.90 in 3.0 mi NNW 25.3 mph 43.7 mph 0.00 in Snow Light Snow
6:56 PM 6.1 °F -17.6 °F 1.0 °F 80% 30.08 in 3.0 mi NNW 29.9 mph 39.1 mph 0.00 in Snow Light Snow
7:56 PM 5.0 °F -19.0 °F -0.0 °F 80% 30.10 in 7.0 mi NNW 29.9 mph 38.0 mph 0.00 in   Overcast
8:17 PM 5.0 °F -20.1 °F -0.0 °F 80% 29.93 in 8.0 mi NNW 33.4 mph 40.3 mph N/A   Overcast
8:26 PM 5.0 °F -19.0 °F -0.0 °F 80% 29.94 in 10.0 mi NNW 29.9 mph 40.3 mph N/A   Overcast
8:38 PM 5.0 °F -19.0 °F -0.0 °F 80% 29.95 in 6.0 mi NNW 29.9 mph 40.3 mph N/A   Haze
8:49 PM 5.0 °F -19.0 °F 1.0 °F 84% 29.95 in 2.5 mi NNW 29.9 mph 36.8 mph 0.00 in Snow Light Snow
8:56 PM 5.0 °F -18.3 °F 1.0 °F 84% 30.15 in 2.5 mi NNW 27.6 mph 36.8 mph 0.00 in Snow Light Snow
9:04 PM 5.0 °F -19.4 °F -0.0 °F 80% 29.97 in 3.0 mi NNW 31.1 mph 38.0 mph 0.00 in Snow Light Snow
9:37 PM 5.0 °F -17.5 °F 1.0 °F 84% 29.98 in 2.5 mi NNW 25.3 mph 39.1 mph 0.00 in Snow Light Snow
9:56 PM 5.0 °F -19.0 °F -0.0 °F 80% 30.19 in 2.5 mi NNW 29.9 mph 36.8 mph 0.00 in Snow Light Snow
10:15 PM 5.0 °F -17.5 °F -0.0 °F 80% 30.00 in 1.8 mi NNW 25.3 mph 38.0 mph 0.00 in Snow Light Snow
10:46 PM 5.0 °F -18.7 °F -0.0 °F 80% 30.00 in 2.0 mi NNW 28.8 mph 35.7 mph 0.00 in Snow Light Snow
10:56 PM 5.0 °F -18.3 °F 1.0 °F 84% 30.21 in 2.0 mi NNW 27.6 mph 36.8 mph 0.00 in Snow Light Snow
11:08 PM 5.0 °F -19.0 °F 1.0 °F 84% 30.00 in 1.8 mi NNW 29.9 mph 36.8 mph 0.00 in Snow Light Snow
11:18 PM 5.0 °F -18.3 °F 1.0 °F 84% 30.00 in 2.0 mi NNW 27.6 mph 35.7 mph 0.00 in Snow Light Snow
11:56 PM 5.0 °F -18.3 °F -0.0 °F 80% 30.23 in 2.0 mi NNW 27.6 mph 32.2 mph 0.00 in Snow Light Snow